SJT weather

San Angelo Regional Mathis Field
San Angelo, Texas, United States

Public forecast

Using degrees Fahrenheit for public forecast. Weather courtesy of forecast.io.

Current aviation weather report (METAR) for San Angelo Regional Mathis Field

Retrieved 2019/10/22 11:51 UTC (44 minutes ago):

KSJT 221151Z 00000KT 10SM CLR 06/01 A3017 RMK AO2 SLP211 T00560006 10111 20044 53011

Aviation forecast (TAF) for San Angelo Regional Mathis Field

Retrieved 2019/10/22 12:30 UTC (5 minutes ago):

TAF KSJT 221128Z 2212/2312 VRB04KT P6SM SKC FM221600 20008KT P6SM SKC